Terminal Aerodrome Forecast
Issued by NWS

Home | Current Version | Previous Version | Text Only | Print | Product List | Glossary On
Versions: 1 2 3 4 5 6 7 8 9 10 11 12 13 14
000
FTUS45 KRIW 182324
TAFJAC
TAF
KJAC 182324Z 1900/1924 VRB03KT P6SM BKN120
     FM190400 VRB05KT P6SM BKN050
     FM191500 VRB05KT P6SM VCSH OVC040
     FM191800 17006KT 5SM -SN OVC030
      AMD LTD TO CLD VIS AND WIND=

USA.gov is the U.S. government's official web portal to all federal, state and local government web resources and services.